sensor_id;sensor_type;location;lat;lon;timestamp;P1;durP1;ratioP1;P2;durP2;ratioP2
77880;SDS011;67077;50.298;18.996;2023-02-08T00:01:31;113.60;;;44.50;;
77880;SDS011;67077;50.298;18.996;2023-02-08T00:03:58;98.10;;;41.40;;
77880;SDS011;67077;50.298;18.996;2023-02-08T00:06:25;102.70;;;42.30;;
77880;SDS011;67077;50.298;18.996;2023-02-08T00:08:51;109.30;;;43.90;;
77880;SDS011;67077;50.298;18.996;2023-02-08T00:11:18;113.10;;;45.00;;
77880;SDS011;67077;50.298;18.996;2023-02-08T00:13:44;113.10;;;45.30;;
77880;SDS011;67077;50.298;18.996;2023-02-08T00:16:12;97.70;;;41.30;;
77880;SDS011;67077;50.298;18.996;2023-02-08T00:18:41;128.10;;;50.90;;
77880;SDS011;67077;50.298;18.996;2023-02-08T00:21:09;121.70;;;51.30;;
77880;SDS011;67077;50.298;18.996;2023-02-08T00:23:37;118.20;;;49.30;;
77880;SDS011;67077;50.298;18.996;2023-02-08T00:26:04;122.90;;;49.70;;
77880;SDS011;67077;50.298;18.996;2023-02-08T00:28:31;115.80;;;45.50;;
77880;SDS011;67077;50.298;18.996;2023-02-08T00:30:57;114.20;;;44.60;;
77880;SDS011;67077;50.298;18.996;2023-02-08T00:33:24;121.00;;;46.80;;
77880;SDS011;67077;50.298;18.996;2023-02-08T00:35:51;131.90;;;50.70;;
77880;SDS011;67077;50.298;18.996;2023-02-08T00:38:24;126.60;;;48.50;;
77880;SDS011;67077;50.298;18.996;2023-02-08T00:40:51;130.70;;;50.10;;
77880;SDS011;67077;50.298;18.996;2023-02-08T00:43:17;122.90;;;49.30;;
77880;SDS011;67077;50.298;18.996;2023-02-08T00:45:44;118.90;;;48.00;;
77880;SDS011;67077;50.298;18.996;2023-02-08T00:48:10;122.70;;;48.40;;
77880;SDS011;67077;50.298;18.996;2023-02-08T00:50:37;118.40;;;47.60;;
77880;SDS011;67077;50.298;18.996;2023-02-08T00:53:04;125.10;;;48.60;;
77880;SDS011;67077;50.298;18.996;2023-02-08T00:55:30;118.90;;;46.80;;
77880;SDS011;67077;50.298;18.996;2023-02-08T00:57:57;109.60;;;44.40;;
77880;SDS011;67077;50.298;18.996;2023-02-08T01:00:23;114.10;;;46.10;;
77880;SDS011;67077;50.298;18.996;2023-02-08T01:02:50;124.10;;;48.30;;
77880;SDS011;67077;50.298;18.996;2023-02-08T01:05:17;101.10;;;42.30;;
77880;SDS011;67077;50.298;18.996;2023-02-08T01:07:43;95.30;;;40.70;;
77880;SDS011;67077;50.298;18.996;2023-02-08T01:10:11;103.20;;;42.90;;
77880;SDS011;67077;50.298;18.996;2023-02-08T01:12:38;99.80;;;41.70;;
77880;SDS011;67077;50.298;18.996;2023-02-08T01:15:04;100.00;;;40.80;;
77880;SDS011;67077;50.298;18.996;2023-02-08T01:17:31;95.60;;;40.20;;
77880;SDS011;67077;50.298;18.996;2023-02-08T01:19:58;97.20;;;40.40;;
77880;SDS011;67077;50.298;18.996;2023-02-08T01:22:25;90.10;;;40.20;;
77880;SDS011;67077;50.298;18.996;2023-02-08T01:24:54;82.80;;;35.00;;
77880;SDS011;67077;50.298;18.996;2023-02-08T01:27:21;95.20;;;41.20;;
77880;SDS011;67077;50.298;18.996;2023-02-08T01:29:47;99.20;;;41.00;;
77880;SDS011;67077;50.298;18.996;2023-02-08T01:32:14;79.90;;;33.60;;
77880;SDS011;67077;50.298;18.996;2023-02-08T01:34:41;103.30;;;42.50;;
77880;SDS011;67077;50.298;18.996;2023-02-08T01:37:08;96.70;;;39.40;;
77880;SDS011;67077;50.298;18.996;2023-02-08T01:39:34;88.40;;;38.80;;
77880;SDS011;67077;50.298;18.996;2023-02-08T01:42:01;78.20;;;32.60;;
77880;SDS011;67077;50.298;18.996;2023-02-08T01:47:32;92.00;;;37.90;;
77880;SDS011;67077;50.298;18.996;2023-02-08T01:50:00;93.40;;;37.80;;
77880;SDS011;67077;50.298;18.996;2023-02-08T01:52:28;75.90;;;28.40;;
77880;SDS011;67077;50.298;18.996;2023-02-08T01:54:58;96.40;;;41.00;;
77880;SDS011;67077;50.298;18.996;2023-02-08T01:57:30;90.70;;;38.90;;
77880;SDS011;67077;50.298;18.996;2023-02-08T01:59:58;85.30;;;37.20;;
77880;SDS011;67077;50.298;18.996;2023-02-08T02:02:39;94.50;;;39.90;;
77880;SDS011;67077;50.298;18.996;2023-02-08T02:05:10;97.20;;;40.50;;
77880;SDS011;67077;50.298;18.996;2023-02-08T02:07:39;87.20;;;37.10;;
77880;SDS011;67077;50.298;18.996;2023-02-08T02:10:09;97.60;;;39.70;;
77880;SDS011;67077;50.298;18.996;2023-02-08T02:12:41;93.10;;;38.60;;
77880;SDS011;67077;50.298;18.996;2023-02-08T02:15:10;90.50;;;38.30;;
77880;SDS011;67077;50.298;18.996;2023-02-08T02:17:36;94.00;;;38.90;;
77880;SDS011;67077;50.298;18.996;2023-02-08T02:20:22;81.60;;;35.00;;
77880;SDS011;67077;50.298;18.996;2023-02-08T02:28:58;89.20;;;36.70;;
77880;SDS011;67077;50.298;18.996;2023-02-08T02:34:57;90.10;;;37.30;;
77880;SDS011;67077;50.298;18.996;2023-02-08T02:40:20;78.30;;;33.80;;
77880;SDS011;67077;50.298;18.996;2023-02-08T02:42:58;85.40;;;37.00;;
77880;SDS011;67077;50.298;18.996;2023-02-08T02:45:47;99.00;;;39.70;;
77880;SDS011;67077;50.298;18.996;2023-02-08T02:48:25;103.80;;;44.00;;
77880;SDS011;67077;50.298;18.996;2023-02-08T02:53:44;93.80;;;38.90;;
77880;SDS011;67077;50.298;18.996;2023-02-08T02:56:29;95.00;;;39.00;;
77880;SDS011;67077;50.298;18.996;2023-02-08T03:01:30;92.50;;;37.80;;
77880;SDS011;67077;50.298;18.996;2023-02-08T03:03:57;92.40;;;37.70;;
77880;SDS011;67077;50.298;18.996;2023-02-08T03:06:27;97.60;;;41.10;;
77880;SDS011;67077;50.298;18.996;2023-02-08T03:11:41;84.50;;;34.60;;
77880;SDS011;67077;50.298;18.996;2023-02-08T03:16:56;77.60;;;32.70;;
77880;SDS011;67077;50.298;18.996;2023-02-08T03:19:34;83.90;;;31.80;;
77880;SDS011;67077;50.298;18.996;2023-02-08T03:22:16;80.70;;;32.70;;
77880;SDS011;67077;50.298;18.996;2023-02-08T03:24:57;78.50;;;32.10;;
77880;SDS011;67077;50.298;18.996;2023-02-08T03:28:03;71.70;;;27.00;;
77880;SDS011;67077;50.298;18.996;2023-02-08T03:30:38;73.50;;;31.00;;
77880;SDS011;67077;50.298;18.996;2023-02-08T03:36:20;76.00;;;29.70;;
77880;SDS011;67077;50.298;18.996;2023-02-08T03:38:51;81.80;;;33.80;;
77880;SDS011;67077;50.298;18.996;2023-02-08T03:41:22;76.50;;;31.70;;
77880;SDS011;67077;50.298;18.996;2023-02-08T03:44:00;70.80;;;29.30;;
77880;SDS011;67077;50.298;18.996;2023-02-08T03:46:34;76.30;;;32.20;;
77880;SDS011;67077;50.298;18.996;2023-02-08T03:49:12;74.00;;;31.00;;
77880;SDS011;67077;50.298;18.996;2023-02-08T03:51:42;72.10;;;28.90;;
77880;SDS011;67077;50.298;18.996;2023-02-08T03:54:16;69.60;;;30.20;;
77880;SDS011;67077;50.298;18.996;2023-02-08T03:56:52;70.80;;;30.00;;
77880;SDS011;67077;50.298;18.996;2023-02-08T03:59:24;79.90;;;31.50;;
77880;SDS011;67077;50.298;18.996;2023-02-08T04:01:57;74.90;;;32.00;;
77880;SDS011;67077;50.298;18.996;2023-02-08T04:04:26;70.20;;;30.20;;
77880;SDS011;67077;50.298;18.996;2023-02-08T04:06:58;77.90;;;33.80;;
77880;SDS011;67077;50.298;18.996;2023-02-08T04:09:25;71.00;;;30.10;;
77880;SDS011;67077;50.298;18.996;2023-02-08T04:11:52;70.00;;;30.60;;
77880;SDS011;67077;50.298;18.996;2023-02-08T04:14:19;73.90;;;30.00;;
77880;SDS011;67077;50.298;18.996;2023-02-08T04:16:46;71.40;;;30.00;;
77880;SDS011;67077;50.298;18.996;2023-02-08T04:19:13;74.30;;;30.50;;
77880;SDS011;67077;50.298;18.996;2023-02-08T04:21:40;60.10;;;24.30;;
77880;SDS011;67077;50.298;18.996;2023-02-08T04:24:07;60.10;;;26.10;;
77880;SDS011;67077;50.298;18.996;2023-02-08T04:26:34;68.80;;;27.30;;
77880;SDS011;67077;50.298;18.996;2023-02-08T04:29:01;66.80;;;28.10;;
77880;SDS011;67077;50.298;18.996;2023-02-08T04:31:28;64.10;;;26.40;;
77880;SDS011;67077;50.298;18.996;2023-02-08T04:33:55;63.00;;;27.00;;
77880;SDS011;67077;50.298;18.996;2023-02-08T04:36:21;61.70;;;25.20;;
77880;SDS011;67077;50.298;18.996;2023-02-08T04:38:48;61.80;;;25.80;;
77880;SDS011;67077;50.298;18.996;2023-02-08T04:41:15;58.40;;;24.80;;
77880;SDS011;67077;50.298;18.996;2023-02-08T04:43:42;59.90;;;25.30;;
77880;SDS011;67077;50.298;18.996;2023-02-08T04:46:09;55.70;;;25.20;;
77880;SDS011;67077;50.298;18.996;2023-02-08T04:48:36;54.80;;;22.60;;
77880;SDS011;67077;50.298;18.996;2023-02-08T04:51:03;58.30;;;24.90;;
77880;SDS011;67077;50.298;18.996;2023-02-08T04:53:30;55.80;;;23.50;;
77880;SDS011;67077;50.298;18.996;2023-02-08T04:55:57;50.80;;;22.40;;
77880;SDS011;67077;50.298;18.996;2023-02-08T04:58:24;54.60;;;23.10;;
77880;SDS011;67077;50.298;18.996;2023-02-08T05:00:51;53.40;;;23.80;;
77880;SDS011;67077;50.298;18.996;2023-02-08T05:03:18;49.40;;;22.60;;
77880;SDS011;67077;50.298;18.996;2023-02-08T05:05:45;54.60;;;24.10;;
77880;SDS011;67077;50.298;18.996;2023-02-08T05:08:11;56.00;;;23.80;;
77880;SDS011;67077;50.298;18.996;2023-02-08T05:10:42;49.90;;;22.70;;
77880;SDS011;67077;50.298;18.996;2023-02-08T05:13:10;49.20;;;20.80;;
77880;SDS011;67077;50.298;18.996;2023-02-08T05:15:37;57.00;;;24.80;;
77880;SDS011;67077;50.298;18.996;2023-02-08T05:18:04;61.10;;;25.80;;
77880;SDS011;67077;50.298;18.996;2023-02-08T05:20:31;61.30;;;24.40;;
77880;SDS011;67077;50.298;18.996;2023-02-08T05:22:59;55.10;;;23.50;;
77880;SDS011;67077;50.298;18.996;2023-02-08T05:25:25;52.50;;;23.60;;
77880;SDS011;67077;50.298;18.996;2023-02-08T05:27:52;52.50;;;22.70;;
77880;SDS011;67077;50.298;18.996;2023-02-08T05:30:19;52.40;;;23.60;;
77880;SDS011;67077;50.298;18.996;2023-02-08T05:32:46;51.50;;;22.00;;
77880;SDS011;67077;50.298;18.996;2023-02-08T05:35:13;53.90;;;22.60;;
77880;SDS011;67077;50.298;18.996;2023-02-08T05:37:39;58.40;;;23.70;;
77880;SDS011;67077;50.298;18.996;2023-02-08T05:40:06;62.90;;;25.70;;
77880;SDS011;67077;50.298;18.996;2023-02-08T05:42:34;53.20;;;23.70;;
77880;SDS011;67077;50.298;18.996;2023-02-08T05:45:00;64.20;;;28.30;;
77880;SDS011;67077;50.298;18.996;2023-02-08T05:47:27;59.20;;;24.70;;
77880;SDS011;67077;50.298;18.996;2023-02-08T05:49:54;54.70;;;25.00;;
77880;SDS011;67077;50.298;18.996;2023-02-08T05:52:21;58.10;;;26.60;;
77880;SDS011;67077;50.298;18.996;2023-02-08T05:54:48;60.90;;;25.80;;
77880;SDS011;67077;50.298;18.996;2023-02-08T05:57:15;51.60;;;22.20;;
77880;SDS011;67077;50.298;18.996;2023-02-08T05:59:41;62.50;;;26.20;;
77880;SDS011;67077;50.298;18.996;2023-02-08T06:02:08;64.20;;;27.10;;
77880;SDS011;67077;50.298;18.996;2023-02-08T06:04:35;60.90;;;27.80;;
77880;SDS011;67077;50.298;18.996;2023-02-08T06:07:02;65.00;;;28.60;;
77880;SDS011;67077;50.298;18.996;2023-02-08T06:09:29;61.40;;;26.90;;
77880;SDS011;67077;50.298;18.996;2023-02-08T06:11:56;63.60;;;27.40;;
77880;SDS011;67077;50.298;18.996;2023-02-08T06:14:23;57.90;;;25.40;;
77880;SDS011;67077;50.298;18.996;2023-02-08T06:16:50;67.00;;;29.00;;
77880;SDS011;67077;50.298;18.996;2023-02-08T06:19:17;64.80;;;28.10;;
77880;SDS011;67077;50.298;18.996;2023-02-08T06:21:44;66.50;;;29.80;;
77880;SDS011;67077;50.298;18.996;2023-02-08T06:24:10;64.00;;;28.00;;
77880;SDS011;67077;50.298;18.996;2023-02-08T06:26:39;69.40;;;27.50;;
77880;SDS011;67077;50.298;18.996;2023-02-08T06:29:06;71.90;;;31.60;;
77880;SDS011;67077;50.298;18.996;2023-02-08T06:31:32;71.90;;;32.20;;
77880;SDS011;67077;50.298;18.996;2023-02-08T06:33:59;67.20;;;31.00;;
77880;SDS011;67077;50.298;18.996;2023-02-08T06:36:26;70.70;;;30.30;;
77880;SDS011;67077;50.298;18.996;2023-02-08T06:38:53;64.90;;;28.20;;
77880;SDS011;67077;50.298;18.996;2023-02-08T06:41:20;72.40;;;30.20;;
77880;SDS011;67077;50.298;18.996;2023-02-08T06:43:47;63.00;;;29.60;;
77880;SDS011;67077;50.298;18.996;2023-02-08T06:46:13;69.50;;;31.30;;
77880;SDS011;67077;50.298;18.996;2023-02-08T06:48:40;64.50;;;29.20;;
77880;SDS011;67077;50.298;18.996;2023-02-08T06:51:07;59.20;;;25.40;;
77880;SDS011;67077;50.298;18.996;2023-02-08T06:53:34;76.50;;;30.50;;
77880;SDS011;67077;50.298;18.996;2023-02-08T06:56:01;72.10;;;31.70;;
77880;SDS011;67077;50.298;18.996;2023-02-08T06:58:28;78.60;;;32.90;;
77880;SDS011;67077;50.298;18.996;2023-02-08T07:00:55;77.00;;;30.90;;
77880;SDS011;67077;50.298;18.996;2023-02-08T07:03:22;70.10;;;29.90;;
77880;SDS011;67077;50.298;18.996;2023-02-08T07:05:49;76.60;;;32.60;;
77880;SDS011;67077;50.298;18.996;2023-02-08T07:08:16;72.30;;;32.30;;
77880;SDS011;67077;50.298;18.996;2023-02-08T07:10:43;72.40;;;30.40;;
77880;SDS011;67077;50.298;18.996;2023-02-08T07:13:10;76.30;;;33.00;;
77880;SDS011;67077;50.298;18.996;2023-02-08T07:15:37;72.00;;;30.60;;
77880;SDS011;67077;50.298;18.996;2023-02-08T07:18:04;70.60;;;29.80;;
77880;SDS011;67077;50.298;18.996;2023-02-08T07:20:31;67.60;;;30.30;;
77880;SDS011;67077;50.298;18.996;2023-02-08T07:22:58;78.70;;;33.30;;
77880;SDS011;67077;50.298;18.996;2023-02-08T07:25:25;70.50;;;29.90;;
77880;SDS011;67077;50.298;18.996;2023-02-08T07:27:52;61.40;;;26.30;;
77880;SDS011;67077;50.298;18.996;2023-02-08T07:30:19;65.60;;;29.20;;
77880;SDS011;67077;50.298;18.996;2023-02-08T07:32:46;72.70;;;31.00;;
77880;SDS011;67077;50.298;18.996;2023-02-08T07:35:13;74.80;;;32.20;;
77880;SDS011;67077;50.298;18.996;2023-02-08T07:37:40;54.50;;;25.30;;
77880;SDS011;67077;50.298;18.996;2023-02-08T07:40:06;58.60;;;26.10;;
77880;SDS011;67077;50.298;18.996;2023-02-08T07:42:33;67.80;;;28.40;;
77880;SDS011;67077;50.298;18.996;2023-02-08T07:45:00;59.00;;;25.40;;
77880;SDS011;67077;50.298;18.996;2023-02-08T07:47:27;49.20;;;21.70;;
77880;SDS011;67077;50.298;18.996;2023-02-08T07:49:54;53.60;;;22.30;;
77880;SDS011;67077;50.298;18.996;2023-02-08T07:52:21;61.90;;;27.50;;
77880;SDS011;67077;50.298;18.996;2023-02-08T07:54:47;61.10;;;27.20;;
77880;SDS011;67077;50.298;18.996;2023-02-08T07:57:14;56.30;;;24.60;;
77880;SDS011;67077;50.298;18.996;2023-02-08T07:59:46;58.50;;;26.30;;
77880;SDS011;67077;50.298;18.996;2023-02-08T08:02:14;59.50;;;26.50;;
77880;SDS011;67077;50.298;18.996;2023-02-08T08:04:41;57.80;;;27.80;;
77880;SDS011;67077;50.298;18.996;2023-02-08T08:07:08;61.10;;;28.20;;
77880;SDS011;67077;50.298;18.996;2023-02-08T08:09:35;60.80;;;26.70;;
77880;SDS011;67077;50.298;18.996;2023-02-08T08:12:02;57.60;;;27.70;;
77880;SDS011;67077;50.298;18.996;2023-02-08T08:14:29;64.90;;;29.50;;
77880;SDS011;67077;50.298;18.996;2023-02-08T08:16:57;54.50;;;23.30;;
77880;SDS011;67077;50.298;18.996;2023-02-08T08:19:24;53.60;;;23.70;;
77880;SDS011;67077;50.298;18.996;2023-02-08T08:21:51;53.70;;;23.30;;
77880;SDS011;67077;50.298;18.996;2023-02-08T08:24:18;54.50;;;23.70;;
77880;SDS011;67077;50.298;18.996;2023-02-08T08:26:45;55.50;;;25.10;;
77880;SDS011;67077;50.298;18.996;2023-02-08T08:29:11;51.20;;;23.80;;
77880;SDS011;67077;50.298;18.996;2023-02-08T08:31:38;45.50;;;20.90;;
77880;SDS011;67077;50.298;18.996;2023-02-08T08:34:05;46.90;;;21.10;;
77880;SDS011;67077;50.298;18.996;2023-02-08T08:36:32;47.10;;;20.70;;
77880;SDS011;67077;50.298;18.996;2023-02-08T08:38:59;49.60;;;22.10;;
77880;SDS011;67077;50.298;18.996;2023-02-08T08:41:26;45.20;;;20.30;;
77880;SDS011;67077;50.298;18.996;2023-02-08T08:43:54;38.80;;;17.60;;
77880;SDS011;67077;50.298;18.996;2023-02-08T08:46:21;38.60;;;18.10;;
77880;SDS011;67077;50.298;18.996;2023-02-08T08:48:48;35.30;;;16.10;;
77880;SDS011;67077;50.298;18.996;2023-02-08T08:51:17;39.60;;;17.60;;
77880;SDS011;67077;50.298;18.996;2023-02-08T08:53:44;38.90;;;17.50;;
77880;SDS011;67077;50.298;18.996;2023-02-08T08:56:11;35.80;;;16.30;;
77880;SDS011;67077;50.298;18.996;2023-02-08T08:58:37;32.90;;;14.50;;
77880;SDS011;67077;50.298;18.996;2023-02-08T09:01:05;38.10;;;17.40;;
77880;SDS011;67077;50.298;18.996;2023-02-08T09:03:32;38.80;;;16.00;;
77880;SDS011;67077;50.298;18.996;2023-02-08T09:05:59;33.30;;;14.90;;
77880;SDS011;67077;50.298;18.996;2023-02-08T09:08:25;33.30;;;16.20;;
77880;SDS011;67077;50.298;18.996;2023-02-08T09:10:54;38.20;;;17.40;;
77880;SDS011;67077;50.298;18.996;2023-02-08T09:13:21;33.60;;;15.10;;
77880;SDS011;67077;50.298;18.996;2023-02-08T09:15:48;30.30;;;13.50;;
77880;SDS011;67077;50.298;18.996;2023-02-08T09:18:15;25.70;;;12.10;;
77880;SDS011;67077;50.298;18.996;2023-02-08T09:20:42;26.30;;;12.40;;
77880;SDS011;67077;50.298;18.996;2023-02-08T09:23:09;24.70;;;12.30;;
77880;SDS011;67077;50.298;18.996;2023-02-08T09:25:37;21.60;;;9.50;;
77880;SDS011;67077;50.298;18.996;2023-02-08T09:28:04;22.50;;;11.30;;
77880;SDS011;67077;50.298;18.996;2023-02-08T09:30:30;26.50;;;11.70;;
77880;SDS011;67077;50.298;18.996;2023-02-08T09:32:58;26.00;;;12.40;;
77880;SDS011;67077;50.298;18.996;2023-02-08T09:35:25;25.00;;;11.60;;
77880;SDS011;67077;50.298;18.996;2023-02-08T09:37:52;23.60;;;10.80;;
77880;SDS011;67077;50.298;18.996;2023-02-08T09:40:22;24.00;;;10.90;;
77880;SDS011;67077;50.298;18.996;2023-02-08T09:43:02;24.10;;;11.30;;
77880;SDS011;67077;50.298;18.996;2023-02-08T09:45:43;22.90;;;12.20;;
77880;SDS011;67077;50.298;18.996;2023-02-08T09:48:23;27.20;;;12.20;;
77880;SDS011;67077;50.298;18.996;2023-02-08T09:51:18;25.70;;;11.70;;
77880;SDS011;67077;50.298;18.996;2023-02-08T09:54:00;23.20;;;10.50;;
77880;SDS011;67077;50.298;18.996;2023-02-08T09:56:34;24.70;;;11.00;;
77880;SDS011;67077;50.298;18.996;2023-02-08T09:59:10;25.00;;;12.20;;
77880;SDS011;67077;50.298;18.996;2023-02-08T10:01:41;26.10;;;10.90;;
77880;SDS011;67077;50.298;18.996;2023-02-08T10:06:51;22.70;;;10.90;;
77880;SDS011;67077;50.298;18.996;2023-02-08T10:09:19;25.90;;;11.00;;
77880;SDS011;67077;50.298;18.996;2023-02-08T10:14:38;22.80;;;11.20;;
77880;SDS011;67077;50.298;18.996;2023-02-08T10:22:28;29.10;;;14.50;;
77880;SDS011;67077;50.298;18.996;2023-02-08T10:33:03;32.10;;;14.80;;
77880;SDS011;67077;50.298;18.996;2023-02-08T10:35:38;31.60;;;14.60;;
77880;SDS011;67077;50.298;18.996;2023-02-08T10:38:22;33.80;;;15.40;;
77880;SDS011;67077;50.298;18.996;2023-02-08T10:41:01;38.70;;;16.60;;
77880;SDS011;67077;50.298;18.996;2023-02-08T10:49:01;38.90;;;18.30;;
77880;SDS011;67077;50.298;18.996;2023-02-08T10:51:33;34.80;;;15.80;;
77880;SDS011;67077;50.298;18.996;2023-02-08T10:54:01;36.40;;;15.50;;
77880;SDS011;67077;50.298;18.996;2023-02-08T10:58:56;34.80;;;16.20;;
77880;SDS011;67077;50.298;18.996;2023-02-08T11:01:25;36.50;;;16.60;;
77880;SDS011;67077;50.298;18.996;2023-02-08T11:06:28;34.70;;;15.70;;
77880;SDS011;67077;50.298;18.996;2023-02-08T11:08:56;28.00;;;13.60;;
77880;SDS011;67077;50.298;18.996;2023-02-08T11:11:25;24.00;;;10.90;;
77880;SDS011;67077;50.298;18.996;2023-02-08T11:13:53;24.40;;;11.60;;
77880;SDS011;67077;50.298;18.996;2023-02-08T11:16:47;22.70;;;10.70;;
77880;SDS011;67077;50.298;18.996;2023-02-08T11:19:20;25.30;;;11.80;;
77880;SDS011;67077;50.298;18.996;2023-02-08T11:21:52;23.80;;;9.80;;
77880;SDS011;67077;50.298;18.996;2023-02-08T11:26:55;25.50;;;11.90;;
77880;SDS011;67077;50.298;18.996;2023-02-08T11:29:23;27.20;;;12.20;;
77880;SDS011;67077;50.298;18.996;2023-02-08T11:34:30;25.50;;;12.60;;
77880;SDS011;67077;50.298;18.996;2023-02-08T11:37:02;22.20;;;10.20;;
77880;SDS011;67077;50.298;18.996;2023-02-08T11:39:41;24.00;;;12.10;;
77880;SDS011;67077;50.298;18.996;2023-02-08T11:42:17;20.90;;;10.70;;
77880;SDS011;67077;50.298;18.996;2023-02-08T11:44:48;23.20;;;10.90;;
77880;SDS011;67077;50.298;18.996;2023-02-08T11:47:17;19.60;;;9.50;;
77880;SDS011;67077;50.298;18.996;2023-02-08T11:49:52;22.70;;;10.80;;
77880;SDS011;67077;50.298;18.996;2023-02-08T11:52:22;20.90;;;9.20;;
77880;SDS011;67077;50.298;18.996;2023-02-08T11:54:54;22.80;;;10.70;;
77880;SDS011;67077;50.298;18.996;2023-02-08T11:57:36;20.70;;;10.50;;
77880;SDS011;67077;50.298;18.996;2023-02-08T12:00:24;24.60;;;11.80;;
77880;SDS011;67077;50.298;18.996;2023-02-08T12:02:59;25.60;;;11.60;;
77880;SDS011;67077;50.298;18.996;2023-02-08T12:16:40;25.40;;;12.30;;
77880;SDS011;67077;50.298;18.996;2023-02-08T12:22:13;22.80;;;11.80;;
77880;SDS011;67077;50.298;18.996;2023-02-08T12:24:47;25.50;;;11.30;;
77880;SDS011;67077;50.298;18.996;2023-02-08T12:33:03;25.00;;;11.70;;
77880;SDS011;67077;50.298;18.996;2023-02-08T12:41:54;21.80;;;10.50;;
77880;SDS011;67077;50.298;18.996;2023-02-08T12:50:15;22.30;;;10.40;;
77880;SDS011;67077;50.298;18.996;2023-02-08T12:53:30;25.60;;;11.60;;
77880;SDS011;67077;50.298;18.996;2023-02-08T12:55:46;24.30;;;11.60;;
77880;SDS011;67077;50.298;18.996;2023-02-08T13:00:54;28.20;;;12.50;;
77880;SDS011;67077;50.298;18.996;2023-02-08T13:03:38;28.10;;;13.40;;
77880;SDS011;67077;50.298;18.996;2023-02-08T13:06:22;27.40;;;12.00;;
77880;SDS011;67077;50.298;18.996;2023-02-08T13:08:54;27.70;;;12.50;;
77880;SDS011;67077;50.298;18.996;2023-02-08T13:11:35;29.50;;;12.60;;
77880;SDS011;67077;50.298;18.996;2023-02-08T13:14:13;29.30;;;12.60;;
77880;SDS011;67077;50.298;18.996;2023-02-08T13:16:52;27.30;;;12.40;;
77880;SDS011;67077;50.298;18.996;2023-02-08T13:19:25;28.70;;;13.00;;
77880;SDS011;67077;50.298;18.996;2023-02-08T13:21:58;28.90;;;12.70;;
77880;SDS011;67077;50.298;18.996;2023-02-08T13:24:36;26.40;;;11.70;;
77880;SDS011;67077;50.298;18.996;2023-02-08T13:27:05;31.40;;;14.70;;
77880;SDS011;67077;50.298;18.996;2023-02-08T13:29:34;35.30;;;15.70;;
77880;SDS011;67077;50.298;18.996;2023-02-08T13:32:05;31.30;;;13.70;;
77880;SDS011;67077;50.298;18.996;2023-02-08T13:34:41;35.30;;;15.40;;
77880;SDS011;67077;50.298;18.996;2023-02-08T13:39:56;30.60;;;13.30;;
77880;SDS011;67077;50.298;18.996;2023-02-08T13:42:34;31.60;;;14.40;;
77880;SDS011;67077;50.298;18.996;2023-02-08T13:45:02;32.80;;;13.80;;
77880;SDS011;67077;50.298;18.996;2023-02-08T13:47:42;34.00;;;15.60;;
77880;SDS011;67077;50.298;18.996;2023-02-08T13:53:01;33.40;;;14.80;;
77880;SDS011;67077;50.298;18.996;2023-02-08T14:03:20;34.00;;;14.10;;
77880;SDS011;67077;50.298;18.996;2023-02-08T14:14:03;33.50;;;15.30;;
77880;SDS011;67077;50.298;18.996;2023-02-08T14:19:30;36.00;;;16.70;;
77880;SDS011;67077;50.298;18.996;2023-02-08T14:24:59;33.40;;;14.30;;
77880;SDS011;67077;50.298;18.996;2023-02-08T14:27:48;38.60;;;15.80;;
77880;SDS011;67077;50.298;18.996;2023-02-08T14:32:47;37.90;;;15.90;;
77880;SDS011;67077;50.298;18.996;2023-02-08T14:35:24;41.60;;;17.60;;
77880;SDS011;67077;50.298;18.996;2023-02-08T14:40:55;38.10;;;16.70;;
77880;SDS011;67077;50.298;18.996;2023-02-08T14:43:37;36.30;;;16.80;;
77880;SDS011;67077;50.298;18.996;2023-02-08T14:49:09;35.50;;;16.10;;
77880;SDS011;67077;50.298;18.996;2023-02-08T14:51:40;33.50;;;14.20;;
77880;SDS011;67077;50.298;18.996;2023-02-08T14:54:22;33.90;;;15.90;;
77880;SDS011;67077;50.298;18.996;2023-02-08T14:57:03;35.00;;;16.20;;
77880;SDS011;67077;50.298;18.996;2023-02-08T14:59:33;41.90;;;18.00;;
77880;SDS011;67077;50.298;18.996;2023-02-08T15:02:01;41.10;;;17.80;;
77880;SDS011;67077;50.298;18.996;2023-02-08T15:04:43;40.70;;;17.60;;
77880;SDS011;67077;50.298;18.996;2023-02-08T15:09:44;34.60;;;16.30;;
77880;SDS011;67077;50.298;18.996;2023-02-08T15:14:54;33.80;;;15.30;;
77880;SDS011;67077;50.298;18.996;2023-02-08T15:19:53;36.20;;;15.70;;
77880;SDS011;67077;50.298;18.996;2023-02-08T15:24:51;41.10;;;18.30;;
77880;SDS011;67077;50.298;18.996;2023-02-08T15:27:26;37.10;;;15.70;;
77880;SDS011;67077;50.298;18.996;2023-02-08T15:29:58;40.60;;;18.30;;
77880;SDS011;67077;50.298;18.996;2023-02-08T15:32:27;44.70;;;19.30;;
77880;SDS011;67077;50.298;18.996;2023-02-08T15:34:56;43.60;;;19.80;;
77880;SDS011;67077;50.298;18.996;2023-02-08T15:37:26;47.40;;;19.60;;
77880;SDS011;67077;50.298;18.996;2023-02-08T15:39:57;47.70;;;19.70;;
77880;SDS011;67077;50.298;18.996;2023-02-08T15:42:27;39.90;;;18.20;;
77880;SDS011;67077;50.298;18.996;2023-02-08T15:45:03;44.80;;;19.00;;
77880;SDS011;67077;50.298;18.996;2023-02-08T15:47:47;42.60;;;18.90;;
77880;SDS011;67077;50.298;18.996;2023-02-08T15:50:19;40.60;;;17.30;;
77880;SDS011;67077;50.298;18.996;2023-02-08T15:52:49;42.20;;;17.80;;
77880;SDS011;67077;50.298;18.996;2023-02-08T15:55:22;40.00;;;19.40;;
77880;SDS011;67077;50.298;18.996;2023-02-08T15:57:54;44.70;;;20.00;;
77880;SDS011;67077;50.298;18.996;2023-02-08T16:02:53;44.70;;;20.30;;
77880;SDS011;67077;50.298;18.996;2023-02-08T16:05:24;45.30;;;18.90;;
77880;SDS011;67077;50.298;18.996;2023-02-08T16:07:55;52.00;;;22.30;;
77880;SDS011;67077;50.298;18.996;2023-02-08T16:10:33;46.00;;;21.20;;
77880;SDS011;67077;50.298;18.996;2023-02-08T16:13:06;51.30;;;23.80;;
77880;SDS011;67077;50.298;18.996;2023-02-08T16:15:44;48.10;;;23.40;;
77880;SDS011;67077;50.298;18.996;2023-02-08T16:18:34;48.10;;;22.00;;
77880;SDS011;67077;50.298;18.996;2023-02-08T16:21:17;36.10;;;17.20;;
77880;SDS011;67077;50.298;18.996;2023-02-08T16:23:54;55.70;;;22.90;;
77880;SDS011;67077;50.298;18.996;2023-02-08T16:26:28;54.20;;;23.60;;
77880;SDS011;67077;50.298;18.996;2023-02-08T16:29:02;49.40;;;22.10;;
77880;SDS011;67077;50.298;18.996;2023-02-08T16:31:32;55.00;;;23.80;;
77880;SDS011;67077;50.298;18.996;2023-02-08T16:36:34;57.80;;;24.10;;
77880;SDS011;67077;50.298;18.996;2023-02-08T16:44:26;65.90;;;26.90;;
77880;SDS011;67077;50.298;18.996;2023-02-08T16:46:56;55.70;;;25.00;;
77880;SDS011;67077;50.298;18.996;2023-02-08T16:49:25;63.90;;;25.70;;
77880;SDS011;67077;50.298;18.996;2023-02-08T16:52:01;65.30;;;25.10;;
77880;SDS011;67077;50.298;18.996;2023-02-08T16:54:28;72.50;;;28.10;;
77880;SDS011;67077;50.298;18.996;2023-02-08T16:56:55;69.20;;;28.70;;
77880;SDS011;67077;50.298;18.996;2023-02-08T16:59:26;60.90;;;26.00;;
77880;SDS011;67077;50.298;18.996;2023-02-08T17:01:53;61.10;;;24.50;;